Raleigh Durham International Airport
KRDU : now visible

Airfield :











YOU CAN JOIN US ON...

 
LOGIN :

Register | Disclaimer

   EN    FR    IT 

 









Legend :    VFR   Marginal VFR   IFR   Intensive IFR   Very Intensive IFR
Visi :
Ceiling :
>= 8 km
>= 3000ft
5 to 8 km
1000 to 3000 ft
1500m to 5 km
500 to 1000 ft
800 to 1500m
200 to 500 ft
< 800m
< 200 ft
Symbols :   Thunderstorms  Fog  Heavy snow  Heavy precipitations  Wind > 20 kt






- Airport Elevation : 435 ft
- IATA code : RDU


KRDU - Raleigh Durham International

CURRENT METAR :
  • 290151Z 00000KT 10SM BKN060 OVC075 21/19 A3002 RMK AO2 SLP161 T02060189

EXPIRED METARs :
  • 290051Z 18003KT 10SM FEW014 SCT055 OVC075 21/19 A3004 RMK AO2 SLP170 T02060189
  • 282351Z 20004KT 8SM FEW014 BKN055 OVC080 21/19 A3006 RMK AO2 SLP175 60001 T02060194 10222 20200 55001

TAF KRDU
Valid from the 29 at 00:00 until the 30 at 00:00 UTC


282331Z 2900/2924 20005KT P6SM SCT080 BKN100 BKN250
FM291100 18006KT P6SM OVC008 WS020/19040KT
FM291400 18009G16KT P6SM OVC010 WS020/18050KT
FM291700 20025G33KT P6SM BKN020 WS020/21050KT
FM291900 23020G30KT P6SM BKN040 WS020/21040KT
KZDC FIR / North America



MET'MAP, your aeronautical weather chart ! - Copyright ORBIFLY December 2007 - Disclaimer

ORBIFLY MET'MAP TEAM :

Programming & Development : Alexandra Zaïnal
Concept & original design : Baudouin d'Aumeries
Assistance for programming : Marc-Olivier Méhu
Technical & hardware support : Manuel Goepfert

Contact : metmap@orbifly.com




SOURCES & CREDITS :

   NOAA       Earth
Advisory